createdAt,value
2017-03-29T00:03:36.111Z,0
2017-03-29T00:07:35.984Z,0
2017-03-29T00:11:35.414Z,0
2017-03-29T00:15:35.136Z,0
2017-03-29T00:19:35.770Z,0
2017-03-29T00:23:37.105Z,0
2017-03-29T00:26:02.790Z,0
2017-03-29T00:30:02.592Z,0
2017-03-29T00:34:02.335Z,0
2017-03-29T00:38:02.171Z,0
2017-03-29T00:40:33.507Z,0
2017-03-29T00:44:24.881Z,0
2017-03-29T00:47:04.330Z,0
2017-03-29T00:51:03.694Z,0
2017-03-29T00:55:03.439Z,0
2017-03-29T00:57:33.891Z,0
2017-03-29T01:01:38.149Z,0
2017-03-29T01:05:47.753Z,0
2017-03-29T01:09:46.222Z,0
2017-03-29T01:13:46.035Z,0
2017-03-29T01:15:47.287Z,0
2017-03-29T01:18:05.909Z,0
2017-03-29T01:20:38.388Z,0
2017-03-29T01:23:08.816Z,0
2017-03-29T01:25:32.472Z,0
2017-03-29T01:27:57.064Z,0
2017-03-29T01:30:22.707Z,0
2017-03-29T01:34:22.564Z,0
2017-03-29T01:38:22.192Z,0
2017-03-29T01:42:21.984Z,0
2017-03-29T01:46:21.668Z,0
2017-03-29T01:50:21.411Z,0
2017-03-29T01:52:51.865Z,0
2017-03-29T01:55:17.451Z,0
2017-03-29T02:00:53.278Z,0
2017-03-29T02:04:53.018Z,0
2017-03-29T02:08:52.688Z,0
2017-03-29T02:12:44.030Z,0
2017-03-29T02:14:45.738Z,0
2017-03-29T02:20:13.181Z,0
2017-03-29T02:24:12.894Z,0
2017-03-29T02:28:04.190Z,0
2017-03-29T02:30:27.806Z,0
2017-03-29T02:34:27.506Z,0
2017-03-29T02:37:07.894Z,0
2017-03-29T02:39:31.470Z,0
2017-03-29T02:43:31.179Z,0
2017-03-29T02:47:32.042Z,0
2017-03-29T02:49:56.665Z,0
2017-03-29T02:54:00.670Z,0
2017-03-29T02:56:24.320Z,0
2017-03-29T02:58:56.703Z,0
2017-03-29T03:01:21.283Z,0
2017-03-29T03:03:22.981Z,0
2017-03-29T03:07:22.654Z,0
2017-03-29T03:11:22.350Z,0
2017-03-29T03:13:53.735Z,0
2017-03-29T03:16:19.268Z,0
2017-03-29T03:18:42.835Z,0
2017-03-29T03:21:14.879Z,0
2017-03-29T03:23:40.413Z,0
2017-03-29T03:26:05.942Z,0
2017-03-29T03:28:31.466Z,0
2017-03-29T03:30:55.059Z,0
2017-03-29T03:33:33.591Z,0
2017-03-29T03:36:12.815Z,0
2017-03-29T03:38:36.330Z,0
2017-03-29T03:41:00.866Z,0
2017-03-29T03:43:26.588Z,0
2017-03-29T03:45:27.730Z,0
2017-03-29T03:48:06.942Z,0
2017-03-29T03:52:08.643Z,0
2017-03-29T03:54:32.197Z,0
2017-03-29T03:57:10.510Z,0
2017-03-29T03:59:50.054Z,0
2017-03-29T04:02:14.653Z,0
2017-03-29T04:04:38.246Z,0
2017-03-29T04:07:02.710Z,0
2017-03-29T04:09:41.035Z,0
2017-03-29T04:12:21.539Z,0
2017-03-29T04:14:53.969Z,0
2017-03-29T04:17:18.454Z,0
2017-03-29T04:19:41.924Z,0
2017-03-29T04:22:05.483Z,0
2017-03-29T04:26:05.091Z,0
2017-03-29T04:30:04.668Z,0
2017-03-29T04:32:36.110Z,0
2017-03-29T04:34:37.796Z,0
2017-03-29T04:37:03.144Z,0
2017-03-29T04:39:32.689Z,0
2017-03-29T04:42:02.760Z,0
2017-03-29T04:46:56.645Z,0
2017-03-29T04:49:34.734Z,0
2017-03-29T04:52:00.225Z,0
2017-03-29T04:55:59.859Z,0
2017-03-29T04:59:59.501Z,0
2017-03-29T05:02:23.890Z,0
2017-03-29T05:05:01.987Z,0
2017-03-29T05:07:27.316Z,0
2017-03-29T05:11:26.935Z,0
2017-03-29T05:13:48.890Z,0
2017-03-29T05:16:12.364Z,0
2017-03-29T05:18:22.179Z,0
2017-03-29T05:20:46.640Z,0
2017-03-29T05:23:01.725Z,0
2017-03-29T05:25:41.980Z,0
2017-03-29T05:29:33.204Z,0
2017-03-29T05:33:32.845Z,0
2017-03-29T05:37:24.536Z,0
2017-03-29T05:43:00.396Z,0
2017-03-29T05:45:26.013Z,0
2017-03-29T05:48:04.235Z,0
2017-03-29T05:50:34.777Z,0
2017-03-29T05:54:34.716Z,0
2017-03-29T05:56:58.805Z,0
2017-03-29T05:59:22.668Z,0
2017-03-29T06:01:47.813Z,0
2017-03-29T06:05:48.333Z,0
2017-03-29T06:08:28.646Z,0
2017-03-29T06:10:59.197Z,0
2017-03-29T06:13:30.668Z,0
2017-03-29T06:17:23.018Z,0
2017-03-29T06:21:23.954Z,0
2017-03-29T06:25:24.337Z,0
2017-03-29T06:32:37.817Z,0
2017-03-29T06:36:30.123Z,0
2017-03-29T06:39:09.353Z,0
2017-03-29T06:43:09.507Z,0
2017-03-29T06:45:42.743Z,0
2017-03-29T06:49:42.799Z,0
2017-03-29T06:52:00.686Z,0
2017-03-29T06:56:01.251Z,0
2017-03-29T07:00:02.851Z,0
2017-03-29T07:02:13.359Z,0
2017-03-29T07:06:14.388Z,0
2017-03-29T07:10:15.670Z,0
2017-03-29T07:12:56.400Z,0
2017-03-29T07:19:40.691Z,1014.87
2017-03-29T07:22:06.501Z,1014.97
2017-03-29T07:24:34.396Z,1014.95
2017-03-29T07:27:02.316Z,1014.92
2017-03-29T07:29:04.707Z,1014.94
2017-03-29T07:31:07.076Z,1014.97
2017-03-29T07:33:39.777Z,1014.95
2017-03-29T07:36:14.772Z,1014.9
2017-03-29T07:38:48.823Z,1014.92
2017-03-29T07:41:30.828Z,1014.96
2017-03-29T07:44:03.892Z,1014.92
2017-03-29T07:46:30.715Z,1014.97
2017-03-29T07:48:58.940Z,1015.04
2017-03-29T07:53:02.518Z,1015.04
2017-03-29T07:55:36.589Z,1015.03
2017-03-29T07:58:09.987Z,1015.06
2017-03-29T08:00:36.607Z,1015.1
2017-03-29T08:03:11.025Z,1015.04
2017-03-29T08:05:45.537Z,1014.93
2017-03-29T08:08:12.998Z,1014.91
2017-03-29T08:12:22.430Z,1014.88
2017-03-29T08:14:48.531Z,1014.79
2017-03-29T08:17:14.423Z,1014.78
2017-03-29T08:19:40.120Z,1014.78
2017-03-29T08:22:07.699Z,1014.79
2017-03-29T08:24:34.071Z,1014.79
2017-03-29T08:26:59.366Z,1014.78
2017-03-29T08:29:24.570Z,1014.76
2017-03-29T08:31:49.583Z,1014.73
2017-03-29T08:34:16.634Z,1014.76
2017-03-29T08:36:41.662Z,1014.8
2017-03-29T08:39:07.595Z,1014.84
2017-03-29T08:41:32.511Z,1014.8
2017-03-29T08:43:58.304Z,1014.85
2017-03-29T08:46:23.159Z,1014.8
2017-03-29T08:48:48.968Z,1014.83
2017-03-29T08:52:51.006Z,1014.78
2017-03-29T08:55:16.736Z,1014.83
2017-03-29T08:57:41.454Z,1014.85
2017-03-29T09:00:06.166Z,1014.87
2017-03-29T09:02:30.923Z,1014.9
2017-03-29T09:04:55.716Z,1014.94
2017-03-29T09:07:20.730Z,1014.92
2017-03-29T09:09:46.517Z,1015.01
2017-03-29T09:15:41.543Z,1014.97
2017-03-29T09:17:52.116Z,1014.93
2017-03-29T09:19:54.156Z,1014.95
2017-03-29T09:22:18.958Z,1014.85
2017-03-29T09:27:58.017Z,1015
2017-03-29T09:30:00.021Z,1015.01
2017-03-29T09:37:13.248Z,1015.05
2017-03-29T09:39:39.842Z,1015.07
2017-03-29T09:42:05.347Z,1015.05
2017-03-29T09:46:06.146Z,1015.01
2017-03-29T09:48:37.531Z,1014.96
2017-03-29T09:52:38.168Z,1014.96
2017-03-29T09:55:10.425Z,1014.93
2017-03-29T09:57:49.403Z,1014.92
2017-03-29T10:01:52.236Z,1014.89
2017-03-29T10:04:17.761Z,1014.9
2017-03-29T10:06:44.224Z,1014.87
2017-03-29T10:09:08.705Z,1014.85
2017-03-29T10:11:33.166Z,1014.88
2017-03-29T10:14:14.515Z,1014.7
2017-03-29T10:16:55.009Z,1014.73
2017-03-29T10:19:21.553Z,1014.76
2017-03-29T10:21:55.009Z,1014.68
2017-03-29T10:24:20.593Z,1014.63
2017-03-29T10:26:46.077Z,1014.66
2017-03-29T10:30:46.784Z,1014.54
2017-03-29T10:33:26.093Z,1014.61
2017-03-29T10:37:28.813Z,1014.48
2017-03-29T10:41:29.490Z,1014.42
2017-03-29T10:45:21.775Z,1014.38
2017-03-29T10:47:39.782Z,1014.3
2017-03-29T10:50:10.989Z,1014.25
2017-03-29T10:54:11.129Z,1014.26
2017-03-29T10:56:36.514Z,1014.26
2017-03-29T10:59:07.426Z,1014.23
2017-03-29T11:03:08.033Z,1014.16
2017-03-29T11:07:09.663Z,1014.09
2017-03-29T11:09:11.647Z,1014.04
2017-03-29T11:11:36.955Z,1014.02
2017-03-29T11:15:37.611Z,1013.93
2017-03-29T11:19:38.241Z,1013.99
2017-03-29T11:23:38.863Z,1013.92
2017-03-29T11:26:10.187Z,1013.85
2017-03-29T11:30:10.757Z,1013.72
2017-03-29T11:32:21.268Z,1013.78
2017-03-29T11:34:54.117Z,1013.57
2017-03-29T11:38:54.670Z,1013.71
2017-03-29T11:42:55.164Z,1013.62
2017-03-29T11:46:55.782Z,1013.63
2017-03-29T11:50:56.199Z,1013.55
2017-03-29T11:53:34.980Z,1013.55
2017-03-29T11:55:59.232Z,1013.55
2017-03-29T11:58:10.431Z,0
2017-03-29T12:02:02.378Z,0
2017-03-29T12:06:02.870Z,0
2017-03-29T12:10:03.301Z,0
2017-03-29T12:12:28.613Z,0
2017-03-29T12:15:08.625Z,0
2017-03-29T12:17:41.589Z,0
2017-03-29T12:23:18.207Z,0
2017-03-29T12:25:40.594Z,0
2017-03-29T12:29:41.058Z,0
2017-03-29T12:33:41.527Z,0
2017-03-29T12:36:05.773Z,0
2017-03-29T12:40:06.179Z,0
2017-03-29T12:42:46.987Z,0
2017-03-29T12:45:17.985Z,0
2017-03-29T12:47:48.994Z,0
2017-03-29T12:51:49.403Z,0
2017-03-29T12:54:21.232Z,0
2017-03-29T12:56:45.525Z,0
2017-03-29T12:59:18.193Z,0
2017-03-29T13:03:29.486Z,0
2017-03-29T13:07:30.100Z,0
2017-03-29T13:11:21.963Z,0
2017-03-29T13:13:46.219Z,0
2017-03-29T13:16:26.263Z,0
2017-03-29T13:20:18.247Z,0
2017-03-29T13:24:19.019Z,0
2017-03-29T13:26:43.508Z,0
2017-03-29T13:30:49.270Z,0
2017-03-29T13:32:51.139Z,0
2017-03-29T13:35:15.407Z,0
2017-03-29T13:37:32.188Z,0
2017-03-29T13:41:32.636Z,0
2017-03-29T13:43:56.854Z,0
2017-03-29T13:46:13.600Z,0
2017-03-29T13:48:38.018Z,0
2017-03-29T13:51:04.256Z,0
2017-03-29T13:53:28.458Z,0
2017-03-29T13:55:59.429Z,0
2017-03-29T13:58:24.674Z,0
2017-03-29T14:00:49.846Z,0
2017-03-29T14:03:15.064Z,0
2017-03-29T14:05:40.352Z,0
2017-03-29T14:08:12.382Z,0
2017-03-29T14:10:36.611Z,0
2017-03-29T14:13:09.413Z,0
2017-03-29T14:15:35.581Z,0
2017-03-29T14:17:59.828Z,0
2017-03-29T14:20:31.955Z,0
2017-03-29T14:23:02.889Z,0
2017-03-29T14:25:29.157Z,0
2017-03-29T14:28:09.954Z,0
2017-03-29T14:32:10.213Z,0
2017-03-29T14:34:50.046Z,0
2017-03-29T14:36:58.331Z,0
2017-03-29T14:39:22.510Z,0
2017-03-29T14:41:55.534Z,0
2017-03-29T14:45:56.999Z,0
2017-03-29T14:48:21.139Z,0
2017-03-29T14:50:45.327Z,0
2017-03-29T14:53:10.547Z,0
2017-03-29T14:57:10.992Z,0
2017-03-29T14:59:36.199Z,0
2017-03-29T15:02:15.294Z,0
2017-03-29T15:04:47.299Z,0
2017-03-29T15:06:58.758Z,0
2017-03-29T15:09:24.017Z,0
2017-03-29T15:11:48.315Z,0
2017-03-29T15:15:48.737Z,0
2017-03-29T15:19:49.274Z,0
2017-03-29T15:22:16.289Z,0
2017-03-29T15:24:41.560Z,0
2017-03-29T15:27:07.691Z,0
2017-03-29T15:29:39.604Z,0
2017-03-29T15:32:03.904Z,0
2017-03-29T15:34:30.010Z,0
2017-03-29T15:36:54.711Z,0
2017-03-29T15:39:18.890Z,0
2017-03-29T15:41:43.176Z,0
2017-03-29T15:44:09.753Z,0
2017-03-29T15:46:42.042Z,0
2017-03-29T15:49:07.234Z,0
2017-03-29T15:51:32.439Z,0
2017-03-29T15:54:03.871Z,0
2017-03-29T15:56:29.104Z,0
2017-03-29T15:59:01.214Z,0
2017-03-29T16:01:41.256Z,0
2017-03-29T16:05:42.678Z,0
2017-03-29T16:08:07.774Z,0
2017-03-29T16:12:08.964Z,0
2017-03-29T16:14:34.216Z,0
2017-03-29T16:16:58.377Z,0
2017-03-29T16:19:29.116Z,0
2017-03-29T16:21:53.337Z,0
2017-03-29T16:24:18.134Z,0
2017-03-29T16:26:42.453Z,0
2017-03-29T16:29:07.983Z,0
2017-03-29T16:31:33.856Z,0
2017-03-29T16:35:37.045Z,0
2017-03-29T16:37:53.510Z,0
2017-03-29T16:40:20.043Z,0
2017-03-29T16:42:44.436Z,0
2017-03-29T16:45:08.633Z,0
2017-03-29T16:47:33.029Z,0
2017-03-29T16:49:57.256Z,0
2017-03-29T16:52:21.978Z,0
2017-03-29T16:54:54.617Z,0
2017-03-29T16:57:22.316Z,0
2017-03-29T16:59:52.544Z,0
2017-03-29T17:02:18.860Z,0
2017-03-29T17:06:20.828Z,0
2017-03-29T17:08:44.981Z,0
2017-03-29T17:11:10.397Z,0
2017-03-29T17:13:34.836Z,0
2017-03-29T17:15:59.141Z,0
2017-03-29T17:18:24.062Z,0
2017-03-29T17:20:55.182Z,0
2017-03-29T17:23:19.270Z,0
2017-03-29T17:25:45.142Z,0
2017-03-29T17:28:10.193Z,0
2017-03-29T17:30:34.181Z,0
2017-03-29T17:32:58.186Z,0
2017-03-29T17:35:02.422Z,0
2017-03-29T17:37:26.534Z,0
2017-03-29T17:39:53.103Z,0
2017-03-29T17:42:20.583Z,0
2017-03-29T17:44:45.685Z,0
2017-03-29T17:47:14.291Z,0
2017-03-29T17:49:38.284Z,0
2017-03-29T17:52:02.407Z,0
2017-03-29T17:54:33.877Z,0
2017-03-29T17:56:35.763Z,0
2017-03-29T17:59:01.188Z,0
2017-03-29T18:01:14.274Z,0
2017-03-29T18:03:38.509Z,0
2017-03-29T18:06:03.228Z,0
2017-03-29T18:08:27.469Z,0
2017-03-29T18:10:51.743Z,0
2017-03-29T18:13:20.416Z,0
2017-03-29T18:15:44.912Z,0
2017-03-29T18:18:09.473Z,0
2017-03-29T18:20:34.033Z,0
2017-03-29T18:23:00.940Z,0
2017-03-29T18:25:26.647Z,0
2017-03-29T18:27:55.964Z,0
2017-03-29T18:30:23.158Z,0
2017-03-29T18:32:52.725Z,0
2017-03-29T18:35:08.296Z,0
2017-03-29T18:37:24.526Z,0
2017-03-29T18:39:49.167Z,0
2017-03-29T18:42:13.792Z,0
2017-03-29T18:44:47.023Z,0
2017-03-29T18:47:11.078Z,0
2017-03-29T18:49:35.379Z,0
2017-03-29T18:51:59.787Z,0
2017-03-29T18:54:23.808Z,0
2017-03-29T18:56:47.738Z,0
2017-03-29T18:59:11.898Z,0
2017-03-29T19:01:36.402Z,0
2017-03-29T19:04:01.436Z,0
2017-03-29T19:06:26.326Z,0
2017-03-29T19:08:50.237Z,0
2017-03-29T19:11:14.379Z,0
2017-03-29T19:13:38.423Z,0
2017-03-29T19:16:02.295Z,0
2017-03-29T19:18:27.350Z,0
2017-03-29T19:20:51.157Z,0
2017-03-29T19:23:15.285Z,0
2017-03-29T19:25:39.181Z,0
2017-03-29T19:28:03.059Z,0
2017-03-29T19:30:27.124Z,0
2017-03-29T19:32:51.044Z,0
2017-03-29T19:35:14.983Z,0
2017-03-29T19:37:38.914Z,0
2017-03-29T19:40:02.918Z,0
2017-03-29T19:42:26.869Z,0
2017-03-29T19:44:50.744Z,0
2017-03-29T19:47:14.629Z,0
2017-03-29T19:49:38.501Z,0
2017-03-29T19:52:02.398Z,0
2017-03-29T19:54:04.166Z,0
2017-03-29T19:56:28.102Z,0
2017-03-29T19:58:52.100Z,0
2017-03-29T20:01:07.517Z,0
2017-03-29T20:03:31.772Z,0
2017-03-29T20:05:55.615Z,0
2017-03-29T20:08:19.823Z,0
2017-03-29T20:10:44.137Z,0
2017-03-29T20:13:09.212Z,0
2017-03-29T20:15:33.449Z,0
2017-03-29T20:17:57.217Z,0
2017-03-29T20:20:21.382Z,0
2017-03-29T20:22:45.233Z,0
2017-03-29T20:24:47.089Z,0
2017-03-29T20:27:10.914Z,0
2017-03-29T20:29:36.794Z,0
2017-03-29T20:32:00.542Z,0
2017-03-29T20:34:24.419Z,0
2017-03-29T20:36:25.786Z,0
2017-03-29T20:38:41.168Z,0
2017-03-29T20:41:04.971Z,0
2017-03-29T20:43:28.783Z,0
2017-03-29T20:45:52.658Z,0
2017-03-29T20:48:16.550Z,0
2017-03-29T20:50:41.342Z,0
2017-03-29T20:53:06.255Z,0
2017-03-29T20:55:30.026Z,0
2017-03-29T20:57:54.838Z,0
2017-03-29T21:00:18.710Z,0
2017-03-29T21:02:43.494Z,0
2017-03-29T21:05:08.388Z,0
2017-03-29T21:07:32.137Z,0
2017-03-29T21:09:56.043Z,0
2017-03-29T21:12:19.834Z,0
2017-03-29T21:14:43.610Z,0
2017-03-29T21:17:14.140Z,0
2017-03-29T21:19:39.033Z,0
2017-03-29T21:22:02.890Z,0
2017-03-29T21:24:27.686Z,0
2017-03-29T21:26:51.422Z,0
2017-03-29T21:29:15.168Z,0
2017-03-29T21:31:40.970Z,0
2017-03-29T21:34:04.744Z,0
2017-03-29T21:36:28.505Z,0
2017-03-29T21:38:52.277Z,0
2017-03-29T21:41:17.077Z,0
2017-03-29T21:43:40.831Z,0
2017-03-29T21:46:04.586Z,0
2017-03-29T21:48:29.439Z,0
2017-03-29T21:50:53.319Z,0
2017-03-29T21:53:17.223Z,0
2017-03-29T21:55:40.978Z,0
2017-03-29T21:58:05.772Z,0
2017-03-29T22:00:29.647Z,0
2017-03-29T22:02:53.525Z,0
2017-03-29T22:05:17.407Z,0
2017-03-29T22:07:42.252Z,0
2017-03-29T22:09:52.549Z,0
2017-03-29T22:12:16.531Z,0
2017-03-29T22:14:31.883Z,0
2017-03-29T22:16:57.675Z,0
2017-03-29T22:19:28.505Z,0
2017-03-29T22:21:52.405Z,0
2017-03-29T22:24:16.256Z,0
2017-03-29T22:26:40.136Z,0
2017-03-29T22:29:05.000Z,0
2017-03-29T22:31:29.713Z,0
2017-03-29T22:33:53.483Z,0
2017-03-29T22:36:18.384Z,0
2017-03-29T22:38:42.187Z,0
2017-03-29T22:41:06.982Z,0
2017-03-29T22:43:30.703Z,0
2017-03-29T22:45:54.484Z,0
2017-03-29T22:48:18.271Z,0
2017-03-29T22:50:33.649Z,0
2017-03-29T22:52:57.423Z,0
2017-03-29T22:55:21.194Z,0
2017-03-29T22:57:45.992Z,0
2017-03-29T23:00:01.345Z,0
2017-03-29T23:02:11.611Z,0
2017-03-29T23:04:35.385Z,0
2017-03-29T23:06:59.190Z,0
2017-03-29T23:09:23.980Z,0
2017-03-29T23:11:48.006Z,0
2017-03-29T23:14:11.747Z,0
2017-03-29T23:16:05.092Z,0
2017-03-29T23:18:28.869Z,0
2017-03-29T23:20:54.689Z,0
2017-03-29T23:23:20.510Z,0
2017-03-29T23:25:44.297Z,0
2017-03-29T23:28:08.056Z,0
2017-03-29T23:30:31.833Z,0
2017-03-29T23:32:55.599Z,0
2017-03-29T23:35:35.877Z,0
2017-03-29T23:37:59.635Z,0
2017-03-29T23:40:23.400Z,0
2017-03-29T23:42:53.864Z,0
2017-03-29T23:45:17.615Z,0
2017-03-29T23:47:27.358Z,0
2017-03-29T23:49:42.722Z,0
2017-03-29T23:51:58.102Z,0
2017-03-29T23:54:15.315Z,0
2017-03-29T23:56:30.584Z,0
2017-03-29T23:58:54.293Z,0
